Impacts TAF Board
For situational awareness. Not to be used for flight planning purposes.
IDs:

KGEG - Spokane Intl, WA, US

Issued at 2320 UTC 02 Jul 2022
Updated at 0143 UTC 03 Jul 2022
Potential Impact None Slight Moderate High
Time0053Z 03/02Z 03/03Z 03/04Z 03/05Z 03/06Z 03/07Z 03/08Z 03/09Z 03/10Z 03/11Z 03/12Z 03/13Z 03/14Z>>
Type OBS PRVL PRVL PRVL PRVL PRVL PRVL PRVL PRVL
  [PRB30]  
PRVL
  [PRB30]  
PRVL
  [PRB30]  
PRVL PRVL PRVL
VIS 10 >6 >6 >6 >6 >6 >6 >6 >6
  [5]  
>6
  [5]  
>6
  [5]  
>6 >6 6
CIG 220 -- -- -- 120 120 80 80 80
  [50]  
80
  [50]  
80
  [50]  
100 100 40
Cover BKN SCT SCT SCT BKN BKN OVC OVC OVC
  [OVC]  
OVC
  [OVC]  
OVC
  [OVC]  
BKN BKN OVC
FltCat VFR VFR VFR VFR VFR VFR VFR VFR VFR
  [MVFR]  
VFR
  [MVFR]  
VFR
  [MVFR]  
VFR VFR VFR
WX -- -- -- -- -- -- VCTS VCTS VCTS
  [TSRA]  
VCTS
  [TSRA]  
VCTS
  [TSRA]  
VCSH VCSH -SHRA
WDir VRB 20 20 20 60 60 VRB VRB VRB
[VRB]
VRB
[VRB]
VRB
[VRB]
VRB VRB 210
WSpd 3 5 5 5 7 7 15 15 15
  [15]  
15
  [15]  
15
  [15]  
6 6 4
WGst -- -- -- -- -- -- 25 25 25
  [25]  
25
  [25]  
25
  [25]  
-- -- --
WSHgt -- -- -- -- -- -- -- -- --
[--]
--
[--]
--
[--]
-- -- --
WSDir -- -- -- -- -- -- -- -- --
[--]
--
[--]
--
[--]
-- -- --
WSSpd -- -- -- -- -- -- -- -- --
[--]
--
[--]
--
[--]
-- -- --
Raw TAF
KGEG 022320Z 0300/0324 02005KT P6SM FEW080 SCT120
  FM030500 06007KT P6SM BKN120
  FM030700 VRB15G25KT P6SM VCTS OVC080CB
  PROB30 0309/0312 5SM TSRA OVC050CB
  FM031200 VRB06KT P6SM VCSH SCT080 BKN100
  FM031400 21004KT 6SM -SHRA BKN040 OVC060
  FM031800 22006KT P6SM -SHRA VCTS SCT060CB BKN080


Raw METAR
KGEG 030053Z VRB03KT 10SM FEW070 FEW120 BKN220 29/04 A2977 RMK AO2 SLP063 T02940039
KGEG 022353Z VRB05KT 10SM FEW055 FEW120 FEW220 30/03 A2980 RMK AO2 SLP071 T03000033 10306 20250 56020
KGEG 022253Z 30005KT 10SM FEW050 FEW120 FEW250 31/03 A2981 RMK AO2 SLP077 T03060028

METAR Board
Radar Display
Forecast Discussion
For situational awareness. Not to be used for flight planning purposes.